createdAt,value
2017-10-29T00:02:23.482Z,5.22
2017-10-29T00:04:51.159Z,5.18
2017-10-29T00:07:18.885Z,5.15
2017-10-29T00:09:46.598Z,5.17
2017-10-29T00:12:14.542Z,5.21
2017-10-29T00:14:42.155Z,5.25
2017-10-29T00:17:11.242Z,5.20
2017-10-29T00:19:38.858Z,5.18
2017-10-29T00:22:06.695Z,5.21
2017-10-29T00:24:34.340Z,5.20
2017-10-29T00:27:02.033Z,5.17
2017-10-29T00:29:29.704Z,5.15
2017-10-29T00:31:57.299Z,5.16
2017-10-29T00:34:25.049Z,5.15
2017-10-29T00:36:52.864Z,5.19
2017-10-29T00:39:20.622Z,5.21
2017-10-29T00:41:48.449Z,5.24
2017-10-29T00:44:16.690Z,5.24
2017-10-29T00:46:44.342Z,5.23
2017-10-29T00:49:12.140Z,5.21
2017-10-29T00:51:39.761Z,5.20
2017-10-29T00:54:07.574Z,4.92
2017-10-29T00:56:35.333Z,5.09
2017-10-29T00:59:02.885Z,5.13
2017-10-29T01:01:30.469Z,5.16
2017-10-29T01:03:58.068Z,5.17
2017-10-29T01:06:25.648Z,5.12
2017-10-29T01:08:53.258Z,5.14
2017-10-29T01:11:21.469Z,5.15
2017-10-29T01:13:49.161Z,5.19
2017-10-29T01:16:16.920Z,5.15
2017-10-29T01:18:44.472Z,5.19
2017-10-29T01:21:12.323Z,5.17
2017-10-29T01:23:39.943Z,5.19
2017-10-29T01:26:07.513Z,5.12
2017-10-29T01:28:35.129Z,5.10
2017-10-29T01:31:02.681Z,5.11
2017-10-29T01:33:30.323Z,5.09
2017-10-29T01:35:58.075Z,5.07
2017-10-29T01:38:25.770Z,5.01
2017-10-29T01:40:53.363Z,4.98
2017-10-29T01:43:20.957Z,4.97
2017-10-29T01:45:48.506Z,4.98
2017-10-29T01:48:16.053Z,4.96
2017-10-29T01:50:44.097Z,4.99
2017-10-29T01:53:11.791Z,5.04
2017-10-29T01:55:40.170Z,5.12
2017-10-29T01:58:07.863Z,5.16
2017-10-29T02:00:35.469Z,5.12
2017-10-29T02:03:03.088Z,5.18
2017-10-29T02:05:30.770Z,5.23
2017-10-29T02:07:58.412Z,5.21
2017-10-29T02:10:26.325Z,5.24
2017-10-29T02:12:54.929Z,5.21
2017-10-29T02:15:22.860Z,5.29
2017-10-29T02:17:50.451Z,5.31
2017-10-29T02:20:18.062Z,5.34
2017-10-29T02:22:46.118Z,5.35
2017-10-29T02:25:13.789Z,5.35
2017-10-29T02:27:41.413Z,5.33
2017-10-29T02:30:10.167Z,5.39
2017-10-29T02:32:37.820Z,5.47
2017-10-29T02:35:06.100Z,5.58
2017-10-29T02:37:33.824Z,5.60
2017-10-29T02:40:01.509Z,5.62
2017-10-29T02:42:30.329Z,5.62
2017-10-29T02:44:57.913Z,5.68
2017-10-29T02:47:25.881Z,5.75
2017-10-29T02:49:54.264Z,5.76
2017-10-29T02:52:22.054Z,5.85
2017-10-29T02:54:49.652Z,5.88
2017-10-29T02:57:17.354Z,5.86
2017-10-29T02:59:44.901Z,5.93
2017-10-29T03:02:13.120Z,5.94
2017-10-29T03:04:44.513Z,6.08
2017-10-29T03:07:12.421Z,6.16
2017-10-29T03:09:41.738Z,6.14
2017-10-29T03:12:12.707Z,6.10
2017-10-29T03:14:43.946Z,6.14
2017-10-29T03:17:12.618Z,6.17
2017-10-29T03:19:40.462Z,6.20
2017-10-29T03:22:08.104Z,6.22
2017-10-29T03:24:36.022Z,6.31
2017-10-29T03:27:04.163Z,6.35
2017-10-29T03:29:32.881Z,6.36
2017-10-29T03:32:03.978Z,6.44
2017-10-29T03:34:31.600Z,6.52
2017-10-29T03:36:59.168Z,6.52
2017-10-29T03:39:26.804Z,6.52
2017-10-29T03:41:54.431Z,6.53
2017-10-29T03:44:26.459Z,6.59
2017-10-29T03:46:55.999Z,6.62
2017-10-29T03:49:25.255Z,6.66
2017-10-29T03:51:53.268Z,6.70
2017-10-29T03:54:20.844Z,6.79
2017-10-29T03:56:49.852Z,6.80
2017-10-29T03:59:20.301Z,6.80
2017-10-29T04:01:48.532Z,6.78
2017-10-29T04:04:16.316Z,6.81
2017-10-29T04:06:44.042Z,6.84
2017-10-29T04:09:11.971Z,6.82
2017-10-29T04:11:40.386Z,6.90
2017-10-29T04:14:09.151Z,6.90
2017-10-29T04:16:36.981Z,6.87
2017-10-29T04:19:04.606Z,6.98
2017-10-29T04:21:32.878Z,7.00
2017-10-29T04:24:00.775Z,7.00
2017-10-29T04:26:29.265Z,6.99
2017-10-29T04:28:56.880Z,7.01
2017-10-29T04:31:25.575Z,6.96
2017-10-29T04:33:54.345Z,6.98
2017-10-29T04:36:22.032Z,7.04
2017-10-29T04:38:49.638Z,6.97
2017-10-29T04:41:17.325Z,7.00
2017-10-29T04:43:45.071Z,7.00
2017-10-29T04:46:12.637Z,7.05
2017-10-29T04:48:40.184Z,7.02
2017-10-29T04:51:08.323Z,7.13
2017-10-29T04:53:36.087Z,7.15
2017-10-29T04:56:05.928Z,7.14
2017-10-29T04:58:33.647Z,7.14
2017-10-29T05:01:01.317Z,7.13
2017-10-29T05:03:29.306Z,7.14
2017-10-29T05:05:57.116Z,7.21
2017-10-29T05:08:24.810Z,7.24
2017-10-29T05:10:52.725Z,7.19
2017-10-29T05:13:20.610Z,7.26
2017-10-29T05:15:48.337Z,7.23
2017-10-29T05:18:16.253Z,7.31
2017-10-29T05:20:44.239Z,7.37
2017-10-29T05:23:13.168Z,7.47
2017-10-29T05:25:42.118Z,7.44
2017-10-29T05:28:09.940Z,7.44
2017-10-29T05:30:37.507Z,7.43
2017-10-29T05:33:05.206Z,7.52
2017-10-29T05:35:32.843Z,7.45
2017-10-29T05:38:00.480Z,7.47
2017-10-29T05:40:28.104Z,7.43
2017-10-29T05:42:55.699Z,7.39
2017-10-29T05:45:24.113Z,7.45
2017-10-29T05:47:51.774Z,7.45
2017-10-29T05:50:26.156Z,7.48
2017-10-29T05:52:53.733Z,7.55
2017-10-29T05:55:21.565Z,7.58
2017-10-29T05:57:49.169Z,7.63
2017-10-29T06:00:17.838Z,7.70
2017-10-29T06:02:45.532Z,7.76
2017-10-29T06:05:13.902Z,7.69
2017-10-29T06:07:41.500Z,7.71
2017-10-29T06:10:09.055Z,7.64
2017-10-29T06:12:36.957Z,7.70
2017-10-29T06:15:04.566Z,7.67
2017-10-29T06:17:32.341Z,7.80
2017-10-29T06:19:59.901Z,7.76
2017-10-29T06:22:30.235Z,7.74
2017-10-29T06:24:57.844Z,7.76
2017-10-29T06:27:26.235Z,7.80
2017-10-29T06:29:53.881Z,7.67
2017-10-29T06:32:24.084Z,7.71
2017-10-29T06:34:51.642Z,7.74
2017-10-29T06:40:10.098Z,7.96
2017-10-29T06:42:37.685Z,7.87
2017-10-29T06:45:05.861Z,7.79
2017-10-29T06:47:34.183Z,7.91
2017-10-29T06:50:01.753Z,7.98
2017-10-29T06:52:29.473Z,7.99
2017-10-29T06:54:57.063Z,8.08
2017-10-29T06:57:26.345Z,8.15
2017-10-29T06:59:54.462Z,8.13
2017-10-29T07:02:27.752Z,8.24
2017-10-29T07:04:55.646Z,8.25
2017-10-29T07:07:23.814Z,8.40
2017-10-29T07:09:51.396Z,8.45
2017-10-29T07:12:19.073Z,8.40
2017-10-29T07:14:48.524Z,8.38
2017-10-29T07:17:16.481Z,8.39
2017-10-29T07:19:46.629Z,8.43
2017-10-29T07:22:15.804Z,8.46
2017-10-29T07:24:43.378Z,8.43
2017-10-29T07:27:13.836Z,8.47
2017-10-29T07:29:41.587Z,8.55
2017-10-29T07:32:10.592Z,8.59
2017-10-29T07:34:38.841Z,8.70
2017-10-29T07:37:07.497Z,8.79
2017-10-29T07:39:36.501Z,8.95
2017-10-29T07:42:06.698Z,8.94
2017-10-29T07:44:34.279Z,8.90
2017-10-29T07:47:03.958Z,8.94
2017-10-29T07:49:34.516Z,8.91
2017-10-29T07:52:05.236Z,9.13
2017-10-29T07:54:33.080Z,9.08
2017-10-29T07:57:00.860Z,8.96
2017-10-29T07:59:28.842Z,9.06
2017-10-29T08:01:56.447Z,9.13
2017-10-29T08:04:24.033Z,9.20
2017-10-29T08:06:51.635Z,9.07
2017-10-29T08:09:19.177Z,9.18
2017-10-29T08:11:46.958Z,9.18
2017-10-29T08:14:14.584Z,9.17
2017-10-29T08:16:42.200Z,9.28
2017-10-29T08:19:10.652Z,9.28
2017-10-29T08:21:38.401Z,9.31
2017-10-29T08:24:05.968Z,9.31
2017-10-29T08:26:33.776Z,9.35
2017-10-29T08:29:01.342Z,9.40
2017-10-29T08:31:28.917Z,9.38
2017-10-29T08:33:56.507Z,9.34
2017-10-29T08:36:24.234Z,9.36
2017-10-29T08:38:51.809Z,9.46
2017-10-29T08:41:19.433Z,9.56
2017-10-29T08:43:47.595Z,9.47
2017-10-29T08:46:15.175Z,9.44
2017-10-29T08:48:42.745Z,9.39
2017-10-29T08:51:11.313Z,9.37
2017-10-29T08:53:44.762Z,9.39
2017-10-29T08:56:12.592Z,9.35
2017-10-29T08:58:40.144Z,9.40
2017-10-29T09:01:07.726Z,9.48
2017-10-29T09:03:35.626Z,9.48
2017-10-29T09:06:03.241Z,9.51
2017-10-29T09:08:30.797Z,9.45
2017-10-29T09:10:58.513Z,9.43
2017-10-29T09:16:17.344Z,9.56
2017-10-29T09:18:44.907Z,9.46
2017-10-29T09:21:13.213Z,9.42
2017-10-29T09:23:42.878Z,9.43
2017-10-29T09:26:10.516Z,9.41
2017-10-29T09:28:38.135Z,9.38
2017-10-29T09:31:05.788Z,9.38
2017-10-29T09:33:33.396Z,9.35
2017-10-29T09:36:00.961Z,9.28
2017-10-29T09:38:28.878Z,9.20
2017-10-29T09:40:56.432Z,9.30
2017-10-29T09:43:24.044Z,9.20
2017-10-29T09:45:51.831Z,9.16
2017-10-29T09:48:19.710Z,9.05
2017-10-29T09:50:47.451Z,7.84
2017-10-29T09:53:16.721Z,7.33
2017-10-29T09:55:44.931Z,7.35
2017-10-29T09:58:14.724Z,7.45
2017-10-29T10:00:42.424Z,7.39
2017-10-29T10:03:10.393Z,7.40
2017-10-29T10:05:39.083Z,7.34
2017-10-29T10:08:06.706Z,7.54
2017-10-29T10:10:34.264Z,7.55
2017-10-29T10:13:01.842Z,7.56
2017-10-29T10:15:31.959Z,7.60
2017-10-29T10:20:49.880Z,7.79
2017-10-29T10:23:18.582Z,7.88
2017-10-29T10:25:46.122Z,7.77
2017-10-29T10:28:13.750Z,7.75
2017-10-29T10:30:41.411Z,7.69
2017-10-29T10:33:09.351Z,7.69
2017-10-29T10:35:38.850Z,7.61
2017-10-29T10:38:06.497Z,7.59
2017-10-29T10:40:35.368Z,7.56
2017-10-29T10:43:03.348Z,7.55
2017-10-29T10:45:31.264Z,7.39
2017-10-29T10:48:00.057Z,7.44
2017-10-29T10:50:29.176Z,7.35
2017-10-29T10:52:56.754Z,7.40
2017-10-29T10:55:24.388Z,7.50
2017-10-29T10:57:52.055Z,8.02
2017-10-29T11:00:19.960Z,8.24
2017-10-29T11:02:47.562Z,8.24
2017-10-29T11:05:15.305Z,8.15
2017-10-29T11:07:43.121Z,8.09
2017-10-29T11:13:05.438Z,8.16
2017-10-29T11:15:33.178Z,8.38
2017-10-29T11:18:00.791Z,8.49
2017-10-29T11:20:28.435Z,8.58
2017-10-29T11:22:56.110Z,8.79
2017-10-29T11:25:24.664Z,9.02
2017-10-29T11:27:54.342Z,9.29
2017-10-29T11:30:22.365Z,9.43
2017-10-29T11:32:50.081Z,9.63
2017-10-29T11:35:20.199Z,9.88
2017-10-29T11:37:49.912Z,9.96
2017-10-29T11:40:17.743Z,10.00
2017-10-29T11:42:45.587Z,10.09
2017-10-29T11:45:16.338Z,10.19
2017-10-29T11:47:44.003Z,10.37
2017-10-29T11:50:11.679Z,11.26
2017-10-29T11:52:40.727Z,12.24
2017-10-29T11:55:13.151Z,12.76
2017-10-29T11:57:40.828Z,13.03
2017-10-29T12:00:12.605Z,13.19
2017-10-29T12:02:40.382Z,12.70
2017-10-29T12:05:08.240Z,12.31
2017-10-29T12:07:35.963Z,12.03
2017-10-29T12:10:03.520Z,12.26
2017-10-29T12:12:31.192Z,12.43
2017-10-29T12:14:58.835Z,12.63
2017-10-29T12:17:26.462Z,12.70
2017-10-29T12:19:54.238Z,12.58
2017-10-29T12:22:22.851Z,13.02
2017-10-29T12:24:50.502Z,12.90
2017-10-29T12:27:18.164Z,12.69
2017-10-29T12:29:45.727Z,12.56
2017-10-29T12:32:13.690Z,11.96
2017-10-29T12:34:41.319Z,11.51
2017-10-29T12:37:09.178Z,11.43
2017-10-29T12:39:36.790Z,11.72
2017-10-29T12:42:04.434Z,11.72
2017-10-29T12:44:32.032Z,12.22
2017-10-29T12:46:59.626Z,12.51
2017-10-29T12:49:28.199Z,11.41
2017-10-29T12:51:55.771Z,11.64
2017-10-29T12:54:23.427Z,11.71
2017-10-29T12:56:50.983Z,11.92
2017-10-29T12:59:18.573Z,12.16
2017-10-29T13:01:46.166Z,12.39
2017-10-29T13:04:13.734Z,12.61
2017-10-29T13:06:41.275Z,12.49
2017-10-29T13:09:09.009Z,12.31
2017-10-29T13:11:36.692Z,12.06
2017-10-29T13:14:04.264Z,12.59
2017-10-29T13:16:31.853Z,12.16
2017-10-29T13:18:59.406Z,12.30
2017-10-29T13:21:27.636Z,12.44
2017-10-29T13:23:55.240Z,12.48
2017-10-29T13:26:22.808Z,12.48
2017-10-29T13:28:50.389Z,12.17
2017-10-29T13:31:17.993Z,12.29
2017-10-29T13:33:45.581Z,12.51
2017-10-29T13:36:13.156Z,12.18
2017-10-29T13:38:40.746Z,12.00
2017-10-29T13:41:08.975Z,12.03
2017-10-29T13:43:36.527Z,11.68
2017-10-29T13:46:04.122Z,11.36
2017-10-29T13:48:31.690Z,11.37
2017-10-29T13:51:00.071Z,10.57
2017-10-29T13:53:27.692Z,10.45
2017-10-29T13:55:55.350Z,9.98
2017-10-29T13:58:22.960Z,10.05
2017-10-29T14:00:50.572Z,10.05
2017-10-29T14:03:18.136Z,10.40
2017-10-29T14:05:45.704Z,10.07
2017-10-29T14:08:13.504Z,10.16
2017-10-29T14:10:41.069Z,10.10
2017-10-29T14:13:08.833Z,10.15
2017-10-29T14:15:36.515Z,10.10
2017-10-29T14:18:04.546Z,10.06
2017-10-29T14:20:32.114Z,10.31
2017-10-29T14:22:59.829Z,10.40
2017-10-29T14:25:28.805Z,10.28
2017-10-29T14:27:56.380Z,10.50
2017-10-29T14:30:23.970Z,10.31
2017-10-29T14:32:51.554Z,10.14
2017-10-29T14:35:19.138Z,9.79
2017-10-29T14:37:46.762Z,9.55
2017-10-29T14:40:14.344Z,9.44
2017-10-29T14:42:42.006Z,9.25
2017-10-29T14:45:10.063Z,9.26
2017-10-29T14:47:37.690Z,9.21
2017-10-29T14:50:05.257Z,9.08
2017-10-29T14:52:32.883Z,9.10
2017-10-29T14:55:00.460Z,9.21
2017-10-29T14:57:28.095Z,9.28
2017-10-29T14:59:55.665Z,9.18
2017-10-29T15:02:23.257Z,9.19
2017-10-29T15:04:51.391Z,9.11
2017-10-29T15:07:19.033Z,9.02
2017-10-29T15:09:46.836Z,8.95
2017-10-29T15:12:14.436Z,8.95
2017-10-29T15:14:42.015Z,8.96
2017-10-29T15:17:09.828Z,8.98
2017-10-29T15:19:37.736Z,8.99
2017-10-29T15:22:05.409Z,8.87
2017-10-29T15:24:33.097Z,8.85
2017-10-29T15:27:01.207Z,8.77
2017-10-29T15:29:29.436Z,8.73
2017-10-29T15:31:57.177Z,8.67
2017-10-29T15:34:25.228Z,8.62
2017-10-29T15:36:54.100Z,8.54
2017-10-29T15:39:21.680Z,8.47
2017-10-29T15:41:51.356Z,8.09
2017-10-29T15:44:19.138Z,7.77
2017-10-29T15:46:47.385Z,7.56
2017-10-29T15:49:15.078Z,7.29
2017-10-29T15:51:42.642Z,7.05
2017-10-29T15:54:10.218Z,6.76
2017-10-29T15:56:38.765Z,6.34
2017-10-29T15:59:06.357Z,5.96
2017-10-29T16:01:33.958Z,5.78
2017-10-29T16:04:01.588Z,5.70
2017-10-29T16:06:29.189Z,5.71
2017-10-29T16:08:56.773Z,5.62
2017-10-29T16:11:24.629Z,5.59
2017-10-29T16:13:52.255Z,5.71
2017-10-29T16:16:19.842Z,5.74
2017-10-29T16:18:47.406Z,5.70
2017-10-29T16:21:14.958Z,5.77
2017-10-29T16:23:42.549Z,5.84
2017-10-29T16:26:10.315Z,5.81
2017-10-29T16:28:37.946Z,5.78
2017-10-29T16:31:06.292Z,5.95
2017-10-29T16:33:33.976Z,5.98
2017-10-29T16:36:01.716Z,6.04
2017-10-29T16:38:29.268Z,6.07
2017-10-29T16:40:56.857Z,6.04
2017-10-29T16:43:24.812Z,6.05
2017-10-29T16:45:52.621Z,6.02
2017-10-29T16:48:21.426Z,6.13
2017-10-29T16:50:49.099Z,6.19
2017-10-29T16:53:16.638Z,6.11
2017-10-29T16:55:44.233Z,6.01
2017-10-29T16:58:11.977Z,5.98
2017-10-29T17:00:39.538Z,6.00
2017-10-29T17:05:57.304Z,6.15
2017-10-29T17:08:24.893Z,6.12
2017-10-29T17:10:52.712Z,6.17
2017-10-29T17:13:20.841Z,6.14
2017-10-29T17:15:48.587Z,6.07
2017-10-29T17:18:16.166Z,5.97
2017-10-29T17:20:43.762Z,6.03
2017-10-29T17:23:11.655Z,6.07
2017-10-29T17:25:39.275Z,6.06
2017-10-29T17:28:07.102Z,6.10
2017-10-29T17:30:35.055Z,6.17
2017-10-29T17:33:02.964Z,6.12
2017-10-29T17:35:31.706Z,6.15
2017-10-29T17:37:59.460Z,6.12
2017-10-29T17:40:27.289Z,6.04
2017-10-29T17:42:54.981Z,6.09
2017-10-29T17:45:22.793Z,6.03
2017-10-29T17:47:50.798Z,6.12
2017-10-29T17:50:18.501Z,6.15
2017-10-29T17:52:46.103Z,6.13
2017-10-29T17:55:14.361Z,6.09
2017-10-29T17:57:42.213Z,6.02
2017-10-29T18:00:09.956Z,6.02
2017-10-29T18:02:37.769Z,6.15
2017-10-29T18:05:05.611Z,6.20
2017-10-29T18:07:33.623Z,6.19
2017-10-29T18:10:01.501Z,6.20
2017-10-29T18:12:29.683Z,6.09
2017-10-29T18:14:57.247Z,6.13
2017-10-29T18:17:25.909Z,6.15
2017-10-29T18:19:53.482Z,6.24
2017-10-29T18:22:21.729Z,6.38
2017-10-29T18:24:58.056Z,6.32
2017-10-29T18:27:26.170Z,6.32
2017-10-29T18:29:53.743Z,6.29
2017-10-29T18:32:22.252Z,6.27
2017-10-29T18:34:49.810Z,6.28
2017-10-29T18:37:17.369Z,6.26
2017-10-29T18:39:45.016Z,6.12
2017-10-29T18:42:12.628Z,6.14
2017-10-29T18:44:40.202Z,6.05
2017-10-29T18:47:07.924Z,5.97
2017-10-29T18:49:36.279Z,5.89
2017-10-29T18:52:03.901Z,5.91
2017-10-29T18:54:32.520Z,5.94
2017-10-29T18:57:00.234Z,5.95
2017-10-29T18:59:28.081Z,5.95
2017-10-29T19:01:55.848Z,5.86
2017-10-29T19:04:23.404Z,5.84
2017-10-29T19:06:51.017Z,5.83
2017-10-29T19:09:22.464Z,5.80
2017-10-29T19:11:50.193Z,5.80
2017-10-29T19:14:17.825Z,5.84
2017-10-29T19:16:45.405Z,5.81
2017-10-29T19:19:13.426Z,5.87
2017-10-29T19:21:41.406Z,5.94
2017-10-29T19:24:09.006Z,6.05
2017-10-29T19:26:36.556Z,6.11
2017-10-29T19:29:04.142Z,6.08
2017-10-29T19:31:31.724Z,6.09
2017-10-29T19:33:59.263Z,6.09
2017-10-29T19:36:26.826Z,6.04
2017-10-29T19:38:54.966Z,5.96
2017-10-29T19:41:22.534Z,5.86
2017-10-29T19:43:50.158Z,5.95
2017-10-29T19:46:17.763Z,5.94
2017-10-29T19:48:47.861Z,5.94
2017-10-29T19:51:15.421Z,6.05
2017-10-29T19:53:45.456Z,6.06
2017-10-29T19:56:13.014Z,6.11
2017-10-29T19:58:40.600Z,6.05
2017-10-29T20:03:59.270Z,6.01
2017-10-29T20:06:27.540Z,6.02
2017-10-29T20:08:55.073Z,6.03
2017-10-29T20:11:23.706Z,6.00
2017-10-29T20:13:51.288Z,5.93
2017-10-29T20:16:20.024Z,5.76
2017-10-29T20:18:47.582Z,5.76
2017-10-29T20:21:15.153Z,5.76
2017-10-29T20:23:42.710Z,5.73
2017-10-29T20:26:10.488Z,5.75
2017-10-29T20:28:38.050Z,5.80
2017-10-29T20:31:05.716Z,5.88
2017-10-29T20:33:33.259Z,5.87
2017-10-29T20:36:00.817Z,5.77
2017-10-29T20:38:29.350Z,5.45
2017-10-29T20:40:56.927Z,5.11
2017-10-29T20:43:24.596Z,4.83
2017-10-29T20:45:53.062Z,4.44
2017-10-29T20:48:21.063Z,4.32
2017-10-29T20:50:48.631Z,4.19
2017-10-29T20:53:16.245Z,4.12
2017-10-29T20:55:43.850Z,3.96
2017-10-29T20:58:12.330Z,3.81
2017-10-29T21:00:40.050Z,3.79
2017-10-29T21:03:08.209Z,3.79
2017-10-29T21:05:49.513Z,3.91
2017-10-29T21:08:17.085Z,3.92
2017-10-29T21:10:44.696Z,3.92
2017-10-29T21:13:12.627Z,3.93
2017-10-29T21:15:40.174Z,3.93
2017-10-29T21:18:07.857Z,3.86
2017-10-29T21:20:35.412Z,3.78
2017-10-29T21:23:02.989Z,3.78
2017-10-29T21:25:31.550Z,4.12
2017-10-29T21:27:59.389Z,4.19
2017-10-29T21:30:27.743Z,4.18
2017-10-29T21:32:55.501Z,3.99
2017-10-29T21:35:23.622Z,3.74
2017-10-29T21:37:51.262Z,3.66
2017-10-29T21:40:18.807Z,3.70
2017-10-29T21:42:46.406Z,3.70
2017-10-29T21:45:14.048Z,3.59
2017-10-29T21:47:41.601Z,3.60
2017-10-29T21:50:09.198Z,3.51
2017-10-29T21:52:36.780Z,3.38
2017-10-29T21:55:04.339Z,3.35
2017-10-29T21:57:32.169Z,3.22
2017-10-29T21:59:59.747Z,3.13
2017-10-29T22:02:27.387Z,3.18
2017-10-29T22:04:55.015Z,3.22
2017-10-29T22:07:23.060Z,3.28
2017-10-29T22:09:50.661Z,3.26
2017-10-29T22:12:18.269Z,3.14
2017-10-29T22:14:45.933Z,3.20
2017-10-29T22:17:14.204Z,3.27
2017-10-29T22:19:41.811Z,3.24
2017-10-29T22:22:09.476Z,3.35
2017-10-29T22:24:37.055Z,3.48
2017-10-29T22:27:05.081Z,3.56
2017-10-29T22:29:32.925Z,3.50
2017-10-29T22:32:00.526Z,3.50
2017-10-29T22:34:28.151Z,3.50
2017-10-29T22:36:56.211Z,3.38
2017-10-29T22:39:24.821Z,3.38
2017-10-29T22:41:52.416Z,3.24
2017-10-29T22:44:20.054Z,3.27
2017-10-29T22:46:47.661Z,3.31
2017-10-29T22:49:15.293Z,3.36
2017-10-29T22:51:42.906Z,3.37
2017-10-29T22:54:10.499Z,3.44
2017-10-29T22:56:38.151Z,3.61
2017-10-29T22:59:05.791Z,3.73
2017-10-29T23:01:33.793Z,3.77
2017-10-29T23:04:01.388Z,3.62
2017-10-29T23:06:41.347Z,3.45
2017-10-29T23:09:23.658Z,3.21
2017-10-29T23:11:51.273Z,3.08
2017-10-29T23:14:18.833Z,2.93
2017-10-29T23:16:46.405Z,2.97
2017-10-29T23:19:13.949Z,3.06
2017-10-29T23:21:41.571Z,2.96
2017-10-29T23:24:09.373Z,2.93
2017-10-29T23:26:37.371Z,3.18
2017-10-29T23:29:05.254Z,3.49
2017-10-29T23:31:32.974Z,3.52
2017-10-29T23:34:00.551Z,3.50
2017-10-29T23:36:28.106Z,3.51
2017-10-29T23:38:55.690Z,3.53
2017-10-29T23:41:24.371Z,3.46
2017-10-29T23:43:51.928Z,3.62
2017-10-29T23:46:19.798Z,3.61
2017-10-29T23:48:47.394Z,3.70
2017-10-29T23:51:15.073Z,3.59
2017-10-29T23:53:42.656Z,3.67
2017-10-29T23:56:10.291Z,3.81
2017-10-29T23:58:37.896Z,3.66
